Time;durP1;ratioP1;P1;durP2;ratioP2;P2;SDS_P1;SDS_P2;PMS_P1;PMS_P2;Temp;Humidity;BMP_temperature;BMP_pressure;BME280_temperature;BME280_humidity;BME280_pressure;Samples;Min_cycle;Max_cycle;Signal;HPM_P1;HPM_P2
2022/03/30 14:13:45;;;;;;;21.73;20.17;;;12.40;99.90;;;;;;4924356;29;21105;-74
2022/03/30 14:16:12;;;;;;;21.07;19.37;;;12.60;99.90;;;;;;4932131;29;20460;-73
2022/03/30 14:18:39;;;;;;;21.17;19.60;;;12.80;99.90;;;;;;4932352;29;20455;-73
2022/03/30 14:21:06;;;;;;;23.20;21.50;;;12.70;99.90;;;;;;4932459;29;20955;-72
2022/03/30 14:23:33;;;;;;;21.20;19.70;;;12.80;99.90;;;;;;4932683;29;20449;-72
2022/03/30 14:26:00;;;;;;;22.47;20.57;;;12.70;99.90;;;;;;4932321;29;20457;-73
2022/03/30 14:28:26;;;;;;;20.70;19.00;;;12.70;99.90;;;;;;4932446;29;21026;-73
2022/03/30 14:30:56;;;;;;;22.00;20.47;;;12.70;99.90;;;;;;4934159;29;20833;-72
2022/03/30 14:33:23;;;;;;;19.70;18.17;;;12.40;99.90;;;;;;4936313;29;20872;-71
2022/03/30 14:35:50;;;;;;;21.23;19.53;;;12.30;99.90;;;;;;4936453;29;20457;-72
2022/03/30 14:38:17;;;;;;;22.83;21.00;;;12.20;99.90;;;;;;4936292;29;20459;-73
2022/03/30 14:40:45;;;;;;;22.70;20.70;;;12.20;99.90;;;;;;4936065;29;20999;-73
2022/03/30 14:43:11;;;;;;;18.50;17.10;;;12.20;99.90;;;;;;4935852;29;20453;-73
2022/03/30 14:45:38;;;;;;;18.67;17.17;;;12.20;99.90;;;;;;4936016;29;20460;-72
2022/03/30 14:48:07;;;;;;;21.70;20.07;;;12.00;99.90;;;;;;4935817;29;20460;-73
2022/03/30 14:50:34;;;;;;;20.17;18.60;;;12.00;99.90;;;;;;4936216;29;20493;-73
2022/03/30 14:53:01;;;;;;;20.20;18.60;;;12.00;99.90;;;;;;4935581;29;20500;-73
2022/03/30 14:55:28;;;;;;;21.40;19.67;;;11.80;99.90;;;;;;4935666;29;20464;-74
2022/03/30 14:57:54;;;;;;;20.53;19.03;;;12.00;99.90;;;;;;4935341;29;20822;-73
2022/03/30 15:00:22;;;;;;;19.37;17.87;;;12.30;99.90;;;;;;4934341;29;20457;-71
2022/03/30 15:02:50;;;;;;;20.63;19.03;;;12.50;99.90;;;;;;4936287;29;21000;-72
2022/03/30 15:05:18;;;;;;;20.70;18.90;;;12.80;99.90;;;;;;4936066;29;20464;-72
2022/03/30 15:07:45;;;;;;;21.17;19.53;;;13.00;99.90;;;;;;4935866;29;20457;-73
2022/03/30 15:10:12;;;;;;;22.47;20.37;;;13.00;99.90;;;;;;4935710;29;21166;-72
2022/03/30 15:12:40;;;;;;;26.00;23.50;;;12.90;99.90;;;;;;4916676;29;20501;-72
2022/03/30 15:15:08;;;;;;;23.97;21.97;;;12.80;99.90;;;;;;4916918;29;20469;-73
2022/03/30 15:17:36;;;;;;;24.23;22.27;;;12.60;99.90;;;;;;4917048;29;20461;-73
2022/03/30 15:20:04;;;;;;;24.83;22.40;;;12.90;99.90;;;;;;4916790;29;20545;-72
2022/03/30 15:22:33;;;;;;;23.17;21.13;;;13.00;99.90;;;;;;4916771;29;20454;-73
2022/03/30 15:25:00;;;;;;;24.57;22.67;;;13.10;99.90;;;;;;4916612;29;20553;-71
2022/03/30 15:27:27;;;;;;;22.70;20.77;;;13.20;99.90;;;;;;4916859;29;20545;-74
2022/03/30 15:29:55;;;;;;;23.77;21.80;;;13.10;99.90;;;;;;4916546;29;20518;-73
2022/03/30 15:32:22;;;;;;;24.60;22.53;;;13.00;99.90;;;;;;4916596;29;20591;-70
2022/03/30 15:34:48;;;;;;;22.87;20.80;;;13.00;99.90;;;;;;4916515;29;21136;-71
2022/03/30 15:37:15;;;;;;;21.87;19.83;;;13.00;99.90;;;;;;4916679;29;20459;-72
2022/03/30 15:39:43;;;;;;;24.17;21.97;;;12.90;99.90;;;;;;4916378;29;20465;-73
2022/03/30 15:42:10;;;;;;;22.63;20.23;;;12.90;99.90;;;;;;4915546;29;20455;-72
2022/03/30 15:44:37;;;;;;;21.00;19.43;;;12.70;99.90;;;;;;4916621;29;20458;-73
2022/03/30 15:47:06;;;;;;;21.70;20.00;;;12.60;99.90;;;;;;4916636;29;20851;-72
2022/03/30 15:49:33;;;;;;;25.37;22.97;;;12.50;99.90;;;;;;4916373;29;20484;-72
2022/03/30 15:52:00;;;;;;;24.77;22.67;;;12.20;99.90;;;;;;4916176;29;20495;-73
2022/03/30 15:54:26;;;;;;;26.43;23.43;;;12.00;99.90;;;;;;4916073;29;20537;-73
2022/03/30 15:56:54;;;;;;;24.17;21.97;;;12.00;99.90;;;;;;4916066;29;20466;-73
2022/03/30 15:59:21;;;;;;;25.20;22.90;;;12.00;99.90;;;;;;4916050;29;20457;-72
2022/03/30 16:01:48;;;;;;;24.17;22.17;;;12.00;99.90;;;;;;4916256;29;20541;-72
2022/03/30 16:04:15;;;;;;;23.93;21.50;;;12.10;99.90;;;;;;4915859;29;20469;-73
2022/03/30 16:06:41;;;;;;;23.10;21.10;;;12.00;99.90;;;;;;4915924;29;20458;-73
2022/03/30 16:09:08;;;;;;;23.00;20.80;;;11.90;99.90;;;;;;4915779;29;20898;-73
2022/03/30 16:14:24;;;;;;;25.17;23.07;;;11.80;99.90;;;;;;4916112;29;20473;-73
2022/03/30 16:16:50;;;;;;;26.10;23.90;;;11.70;99.90;;;;;;4915807;29;20875;-73
2022/03/30 16:19:19;;;;;;;27.87;25.53;;;11.70;99.90;;;;;;4915999;29;20512;-74
2022/03/30 16:21:48;;;;;;;25.80;23.60;;;11.60;99.90;;;;;;4915697;29;20457;-73
2022/03/30 16:24:18;;;;;;;26.17;23.83;;;11.60;99.90;;;;;;4915756;29;20821;-72
2022/03/30 16:26:46;;;;;;;25.70;23.10;;;11.50;99.90;;;;;;4915530;29;20457;-73
2022/03/30 16:29:14;;;;;;;27.90;25.43;;;11.50;99.90;;;;;;4915479;29;20462;-72
2022/03/30 16:31:44;;;;;;;31.17;27.87;;;11.40;99.90;;;;;;4915421;29;20490;-73
2022/03/30 16:34:13;;;;;;;29.77;26.80;;;11.30;99.90;;;;;;4915425;29;20443;-72
2022/03/30 16:36:40;;;;;;;32.97;29.63;;;11.20;99.90;;;;;;4915243;29;20456;-72
2022/03/30 16:39:09;;;;;;;34.57;31.00;;;11.00;99.90;;;;;;4915414;29;20592;-71
2022/03/30 16:41:36;;;;;;;35.30;31.57;;;11.00;99.90;;;;;;4915409;29;20463;-73
2022/03/30 16:44:04;;;;;;;32.70;29.30;;;10.90;99.90;;;;;;4915364;29;20501;-73
2022/03/30 16:46:31;;;;;;;34.30;30.83;;;10.90;99.90;;;;;;4914971;29;20459;-72
2022/03/30 16:48:59;;;;;;;35.90;32.47;;;10.90;99.90;;;;;;4915086;29;20526;-73
2022/03/30 16:51:26;;;;;;;38.27;34.27;;;10.90;99.90;;;;;;4914743;29;20461;-71
2022/03/30 16:53:54;;;;;;;35.67;32.00;;;10.90;99.90;;;;;;4914423;29;20569;-70
2022/03/30 16:56:22;;;;;;;34.97;31.23;;;10.90;99.90;;;;;;4914427;29;20474;-72
2022/03/30 16:58:50;;;;;;;36.00;32.40;;;10.90;99.90;;;;;;4914549;29;20539;-71
2022/03/30 17:01:17;;;;;;;32.50;29.33;;;10.90;99.90;;;;;;4914151;29;20459;-72
2022/03/30 17:03:44;;;;;;;33.97;30.50;;;10.90;99.90;;;;;;4914463;29;20506;-71
2022/03/30 17:06:13;;;;;;;30.03;27.10;;;10.90;99.90;;;;;;4914027;29;20458;-71
2022/03/30 17:11:24;;;;;;;33.37;30.07;;;10.80;99.90;;;;;;4914137;29;20607;-71
2022/03/30 17:13:51;;;;;;;34.10;30.80;;;10.90;99.90;;;;;;4914259;29;20498;-71
2022/03/30 17:16:17;;;;;;;32.60;29.17;;;10.90;99.90;;;;;;4914418;29;20451;-71
2022/03/30 17:18:44;;;;;;;34.13;30.70;;;10.70;99.90;;;;;;4914303;29;20528;-71
2022/03/30 17:21:12;;;;;;;32.17;29.07;;;10.70;99.90;;;;;;4914059;29;20466;-71
2022/03/30 17:23:40;;;;;;;30.13;27.00;;;10.60;99.90;;;;;;4914197;29;20459;-72
2022/03/30 17:26:07;;;;;;;33.03;29.90;;;10.60;99.90;;;;;;4914248;29;20457;-71
2022/03/30 17:28:34;;;;;;;32.57;29.40;;;10.60;99.90;;;;;;4914287;29;20455;-72
2022/03/30 17:31:02;;;;;;;30.90;27.83;;;10.70;99.90;;;;;;4914366;29;20461;-71
2022/03/30 17:33:29;;;;;;;32.53;29.17;;;10.70;99.90;;;;;;4913885;29;20676;-73
2022/03/30 17:35:57;;;;;;;32.17;29.03;;;10.70;99.90;;;;;;4914072;29;20823;-72
2022/03/30 17:38:25;;;;;;;35.57;31.70;;;10.70;99.90;;;;;;4913812;29;20459;-71
2022/03/30 17:40:51;;;;;;;32.10;28.17;;;10.60;99.90;;;;;;4914025;29;20458;-72
2022/03/30 17:43:18;;;;;;;32.27;29.20;;;10.70;99.90;;;;;;4914062;29;20458;-72
2022/03/30 17:45:45;;;;;;;34.87;31.27;;;10.60;99.90;;;;;;4913883;29;20462;-72
2022/03/30 17:53:43;;;;;;;24.23;22.03;;;10.40;99.90;;;;;;4913890;29;20487;-70
2022/03/30 17:56:10;;;;;;;27.07;24.37;;;10.30;99.90;;;;;;4913635;29;20458;-70
2022/03/30 17:58:36;;;;;;;27.47;24.87;;;10.20;99.90;;;;;;4914119;29;20967;-72
2022/03/30 18:01:06;;;;;;;26.53;24.23;;;10.20;99.90;;;;;;4913868;29;20512;-72
2022/03/30 18:03:33;;;;;;;27.90;25.30;;;10.20;99.90;;;;;;4913736;29;20474;-72
2022/03/30 18:06:00;;;;;;;27.17;24.57;;;10.20;99.90;;;;;;4916114;29;20468;-71
2022/03/30 18:08:27;;;;;;;26.03;23.70;;;10.20;99.90;;;;;;4917507;29;20728;-70
2022/03/30 18:10:55;;;;;;;25.30;23.20;;;10.20;99.90;;;;;;4917542;29;20882;-71
2022/03/30 18:13:22;;;;;;;26.63;23.87;;;10.20;99.90;;;;;;4917166;29;20501;-73
2022/03/30 18:15:51;;;;;;;27.90;24.90;;;10.10;99.90;;;;;;4917809;29;20502;-72
2022/03/30 18:18:17;;;;;;;26.53;23.77;;;10.10;99.90;;;;;;4917527;29;20871;-71
2022/03/30 18:20:45;;;;;;;25.30;23.00;;;9.90;99.90;;;;;;4917572;29;20514;-72
2022/03/30 18:23:12;;;;;;;25.33;23.07;;;9.80;99.90;;;;;;4917223;29;20454;-71
2022/03/30 18:25:39;;;;;;;24.70;22.00;;;9.80;99.90;;;;;;4917484;29;20553;-71
2022/03/30 18:28:08;;;;;;;26.03;23.30;;;9.70;99.90;;;;;;4917617;29;20462;-71
2022/03/30 18:30:36;;;;;;;24.10;21.60;;;9.60;99.90;;;;;;4917664;29;20480;-71
2022/03/30 18:33:04;;;;;;;23.87;21.47;;;9.50;99.90;;;;;;4917197;29;20490;-72
2022/03/30 18:35:30;;;;;;;25.73;23.10;;;9.40;99.90;;;;;;4917046;29;20465;-72
2022/03/30 18:37:57;;;;;;;26.03;23.33;;;9.40;99.90;;;;;;4917287;29;20458;-72
2022/03/30 18:40:24;;;;;;;26.27;23.67;;;9.30;99.90;;;;;;4916964;29;20454;-71
2022/03/30 18:42:51;;;;;;;25.93;23.57;;;9.30;99.90;;;;;;4917334;29;20466;-71
2022/03/30 18:45:20;;;;;;;25.80;23.27;;;9.30;99.90;;;;;;4917019;29;20462;-72
2022/03/30 18:47:47;;;;;;;26.53;23.63;;;9.30;99.90;;;;;;4916964;29;20462;-73
2022/03/30 18:50:14;;;;;;;25.77;22.07;;;9.30;99.90;;;;;;4916762;29;20461;-71
2022/03/30 18:52:40;;;;;;;27.50;24.53;;;9.20;99.90;;;;;;4916907;29;20462;-72
2022/03/30 18:55:08;;;;;;;27.20;24.53;;;9.20;99.90;;;;;;4917108;29;20464;-71
2022/03/30 18:57:35;;;;;;;29.50;26.33;;;9.10;99.90;;;;;;4917022;29;20458;-71
2022/03/30 19:00:03;;;;;;;29.23;26.73;;;9.00;99.90;;;;;;4916753;29;20484;-72
2022/03/30 19:02:31;;;;;;;33.43;30.10;;;9.00;99.90;;;;;;4916690;29;20467;-74
2022/03/30 19:04:58;;;;;;;32.90;30.00;;;9.00;99.90;;;;;;4916721;29;21034;-72
2022/03/30 19:07:24;;;;;;;34.27;31.07;;;8.90;99.90;;;;;;4916495;29;20494;-72
2022/03/30 19:09:51;;;;;;;34.23;31.00;;;8.90;99.90;;;;;;4916740;29;20454;-72
2022/03/30 19:12:18;;;;;;;31.77;28.87;;;8.90;99.90;;;;;;4916142;29;20478;-72
2022/03/30 19:14:44;;;;;;;35.47;32.00;;;8.90;99.90;;;;;;4916601;29;20494;-72
2022/03/30 19:17:12;;;;;;;32.60;29.60;;;8.80;99.90;;;;;;4915141;29;20466;-72
2022/03/30 19:19:41;;;;;;;32.70;29.40;;;8.80;99.90;;;;;;4916498;29;20462;-72
2022/03/30 19:22:07;;;;;;;30.10;27.40;;;8.90;99.90;;;;;;4916652;29;20461;-74
2022/03/30 19:24:34;;;;;;;31.60;29.10;;;8.90;99.90;;;;;;4916485;29;20454;-73
2022/03/30 19:27:01;;;;;;;28.77;26.37;;;8.80;99.90;;;;;;4916361;29;20569;-73
2022/03/30 19:29:27;;;;;;;29.80;27.00;;;8.90;99.90;;;;;;4916094;29;20505;-74
2022/03/30 19:31:55;;;;;;;29.43;27.00;;;8.80;99.90;;;;;;4916323;29;20469;-74
2022/03/30 19:34:21;;;;;;;30.47;27.87;;;8.90;99.90;;;;;;4916172;29;20494;-73
2022/03/30 19:36:49;;;;;;;31.30;28.60;;;8.90;99.90;;;;;;4916249;29;20486;-72
2022/03/30 19:39:17;;;;;;;33.67;30.27;;;9.00;99.90;;;;;;4915989;29;20459;-73
2022/03/30 19:41:43;;;;;;;32.13;29.30;;;9.00;99.90;;;;;;4909206;29;20486;-72
2022/03/30 19:44:10;;;;;;;32.03;29.10;;;9.10;99.90;;;;;;4903463;29;20459;-70
2022/03/30 19:46:37;;;;;;;30.57;28.00;;;9.00;99.90;;;;;;4899994;29;20475;-71
2022/03/30 19:49:03;;;;;;;33.53;30.37;;;9.10;99.90;;;;;;4905974;29;20459;-73
2022/03/30 19:51:30;;;;;;;35.47;32.00;;;9.10;99.90;;;;;;4897649;29;20462;-73
2022/03/30 19:53:58;;;;;;;32.20;29.60;;;9.10;99.90;;;;;;4897453;29;20507;-73
2022/03/30 19:56:25;;;;;;;31.53;28.83;;;9.10;99.90;;;;;;4897413;29;20515;-73
2022/03/30 19:58:53;;;;;;;32.17;29.60;;;9.10;99.90;;;;;;4897423;29;20523;-73
2022/03/30 20:01:20;;;;;;;36.43;31.97;;;9.20;99.90;;;;;;4897532;29;20554;-73
2022/03/30 20:03:47;;;;;;;34.63;31.50;;;9.20;99.90;;;;;;4897401;29;20500;-72
2022/03/30 20:06:14;;;;;;;34.13;31.13;;;9.10;99.90;;;;;;4897358;29;20459;-72
2022/03/30 20:08:41;;;;;;;34.23;31.00;;;9.20;99.90;;;;;;4896981;29;20463;-72
2022/03/30 20:11:10;;;;;;;34.73;31.67;;;9.20;99.90;;;;;;4897216;29;20490;-73
2022/03/30 20:13:37;;;;;;;34.70;31.50;;;9.20;99.90;;;;;;4896915;29;20499;-73
2022/03/30 20:16:04;;;;;;;33.10;30.00;;;9.10;99.90;;;;;;4897306;29;20465;-73
2022/03/30 20:18:31;;;;;;;33.57;30.53;;;9.10;99.90;;;;;;4897048;29;20526;-73
2022/03/30 20:20:58;;;;;;;31.37;28.73;;;9.00;99.90;;;;;;4897061;29;20462;-72
2022/03/30 20:23:25;;;;;;;32.43;29.60;;;9.00;99.90;;;;;;4897005;29;20491;-73
2022/03/30 20:25:52;;;;;;;33.50;30.67;;;8.90;99.90;;;;;;4897022;29;20459;-73
2022/03/30 20:28:20;;;;;;;31.60;29.10;;;8.90;99.90;;;;;;4896653;29;20498;-73
2022/03/30 20:30:47;;;;;;;31.30;28.90;;;9.00;99.90;;;;;;4896809;29;20488;-73
2022/03/30 20:33:14;;;;;;;33.77;30.77;;;9.00;99.90;;;;;;4896725;29;20550;-73
2022/03/30 20:35:45;;;;;;;30.57;28.07;;;9.00;99.90;;;;;;4896848;29;20828;-73
2022/03/30 20:38:13;;;;;;;31.53;28.83;;;9.10;99.90;;;;;;4896725;29;20470;-73
2022/03/30 20:40:39;;;;;;;33.30;30.70;;;9.10;99.90;;;;;;4896614;29;20883;-74
2022/03/30 20:43:06;;;;;;;34.30;31.30;;;9.10;99.90;;;;;;4896683;29;20463;-74
2022/03/30 20:45:34;;;;;;;34.60;31.50;;;9.10;99.90;;;;;;4896726;29;20938;-74
